Time;durP1;ratioP1;P1;durP2;ratioP2;P2;SDS_P1;SDS_P2;PMS_P1;PMS_P2;Temp;Humidity;BMP_temperature;BMP_pressure;BME280_temperature;BME280_humidity;BME280_pressure;Samples;Min_cycle;Max_cycle;Signal;HPM_P1;HPM_P2
2022/07/24 00:00:41;;;;;;;7.82;3.90;;;;;;;25.30;60.41;100374.03;5010740;28;20022;-86
2022/07/24 00:03:07;;;;;;;7.35;3.65;;;;;;;25.32;60.09;100383.66;4992031;28;20022;-86
2022/07/24 00:05:32;;;;;;;12.07;3.92;;;;;;;25.35;59.98;100394.16;5010336;28;20038;-89
2022/07/24 00:07:58;;;;;;;9.02;3.83;;;;;;;24.80;59.66;100297.78;5010601;28;20084;-86
2022/07/24 00:10:24;;;;;;;7.65;4.13;;;;;;;25.30;59.68;100374.03;5010418;28;20412;-82
2022/07/24 00:12:49;;;;;;;7.00;3.70;;;;;;;24.99;59.59;100329.91;5010030;28;20026;-84
2022/07/24 00:15:15;;;;;;;7.32;4.05;;;;;;;24.78;60.27;100320.75;5010513;28;20483;-81
2022/07/24 00:17:40;;;;;;;8.43;3.65;;;;;;;25.04;60.49;100371.13;5009924;28;20026;-82
2022/07/24 00:20:07;;;;;;;7.55;3.38;;;;;;;25.07;60.31;100377.25;5010198;28;20113;-84
2022/07/24 00:22:33;;;;;;;7.30;3.67;;;;;;;24.88;59.78;100351.28;5010570;28;20096;-80
2022/07/24 00:24:58;;;;;;;9.35;3.72;;;;;;;24.95;60.14;100374.00;5010193;28;20468;-82
2022/07/24 00:27:24;;;;;;;6.88;3.60;;;;;;;24.96;59.74;100388.06;5010290;28;20033;-82
2022/07/24 00:29:50;;;;;;;7.00;3.50;;;;;;;24.80;60.28;100377.00;5009826;28;20025;-82
2022/07/24 00:32:15;;;;;;;6.07;3.42;;;;;;;24.41;60.33;100348.81;5010006;28;20029;-88
2022/07/24 00:34:41;;;;;;;6.65;3.88;;;;;;;24.54;59.88;100357.34;4992682;28;20533;-87
2022/07/24 00:37:06;;;;;;;7.90;3.63;;;;;;;24.48;59.86;100353.06;5010447;28;20029;-86
2022/07/24 00:39:32;;;;;;;11.32;4.07;;;;;;;24.43;59.91;100359.38;5010267;28;20392;-84
2022/07/24 00:41:57;;;;;;;8.02;3.60;;;;;;;24.66;58.87;100385.25;5010100;28;20038;-88
2022/07/24 00:44:22;;;;;;;9.40;3.17;;;;;;;24.53;58.66;100351.19;4992253;28;20025;-89
2022/07/24 00:46:48;;;;;;;7.78;3.20;;;;;;;24.48;58.34;100346.94;4987221;28;20045;-88
2022/07/24 00:49:16;;;;;;;16.75;3.90;;;;;;;24.66;58.55;100382.59;5010006;28;20049;-88
2022/07/24 00:51:44;;;;;;;9.45;3.80;;;;;;;24.58;58.64;100377.47;5009631;28;20087;-87
2022/07/24 00:54:11;;;;;;;9.32;3.83;;;;;;;24.62;58.32;100397.59;4993820;28;20021;-87
2022/07/24 00:56:38;;;;;;;9.95;3.58;;;;;;;24.46;59.28;100394.47;4996103;28;20182;-86
2022/07/24 00:59:04;;;;;;;6.70;3.80;;;;;;;24.28;60.07;100392.22;5013671;28;20040;-87
2022/07/24 01:01:29;;;;;;;8.55;3.58;;;;;;;24.23;60.18;100390.53;5013149;28;20396;-81
2022/07/24 01:03:55;;;;;;;8.05;3.63;;;;;;;23.96;59.76;100341.88;5013807;28;20034;-85
2022/07/24 01:06:22;;;;;;;9.25;3.60;;;;;;;23.92;60.03;100341.97;5013484;28;20089;-83
2022/07/24 01:08:49;;;;;;;5.18;3.45;;;;;;;24.19;60.60;100388.88;5013523;28;20033;-82
2022/07/24 01:11:14;;;;;;;5.95;3.25;;;;;;;23.93;60.90;100359.53;5013080;28;20026;-85
2022/07/24 01:13:41;;;;;;;8.75;3.30;;;;;;;23.80;61.43;100343.03;4995591;28;20033;-84
2022/07/24 01:16:08;;;;;;;5.80;3.10;;;;;;;23.70;61.63;100339.72;4995369;28;20485;-85
2022/07/24 01:18:34;;;;;;;7.15;3.47;;;;;;;23.64;62.09;100340.72;5013284;28;20030;-85
2022/07/24 01:20:59;;;;;;;6.18;3.47;;;;;;;23.74;61.71;100337.00;4995535;28;20026;-84
2022/07/24 01:23:25;;;;;;;10.10;3.78;;;;;;;23.81;61.39;100339.50;4995211;28;20029;-85
2022/07/24 01:25:51;;;;;;;5.72;3.30;;;;;;;24.00;61.21;100359.38;5013178;28;20451;-85
2022/07/24 01:28:17;;;;;;;5.47;3.50;;;;;;;24.08;60.98;100374.19;4994979;28;20542;-87
2022/07/24 01:30:42;;;;;;;5.35;3.22;;;;;;;23.83;61.19;100330.69;5012362;28;20034;-87
2022/07/24 01:33:09;;;;;;;11.27;3.70;;;;;;;23.78;61.71;100329.06;4995201;28;20111;-84
2022/07/24 01:35:34;;;;;;;6.03;3.60;;;;;;;23.86;61.48;100354.34;5012617;28;20030;-86
2022/07/24 01:37:59;;;;;;;8.60;3.42;;;;;;;23.77;62.37;100357.16;5012388;28;20033;-88
2022/07/24 01:40:25;;;;;;;9.82;3.42;;;;;;;23.64;61.83;100327.53;5012747;28;20105;-86
2022/07/24 01:42:51;;;;;;;6.07;3.10;;;;;;;23.70;61.67;100327.44;5012655;28;20049;-86
2022/07/24 01:45:17;;;;;;;6.80;3.13;;;;;;;23.79;62.11;100363.28;4994288;28;20108;-86
2022/07/24 01:47:43;;;;;;;6.57;3.22;;;;;;;23.52;62.68;100333.06;5009159;28;20054;-86
2022/07/24 01:50:10;;;;;;;6.80;3.30;;;;;;;23.51;62.59;100331.31;5007364;28;20081;-81
2022/07/24 01:52:36;;;;;;;5.20;3.75;;;;;;;23.66;62.20;100336.28;4994603;28;20104;-84
2022/07/24 01:55:03;;;;;;;6.50;3.60;;;;;;;23.80;62.21;100359.75;5012508;28;20113;-83
2022/07/24 01:57:28;;;;;;;5.65;3.60;;;;;;;23.36;62.21;100290.31;5012057;28;20096;-85
2022/07/24 01:59:54;;;;;;;7.82;3.40;;;;;;;23.72;62.28;100373.06;5012094;28;20415;-83
2022/07/24 02:02:19;;;;;;;4.53;3.22;;;;;;;23.55;63.00;100354.94;4994764;28;20099;-85
2022/07/24 02:04:45;;;;;;;5.68;3.83;;;;;;;23.35;62.85;100335.97;5011756;28;20548;-85
2022/07/24 02:07:10;;;;;;;5.35;3.38;;;;;;;23.53;62.85;100362.00;5011988;28;20088;-83
2022/07/24 02:09:35;;;;;;;8.40;3.33;;;;;;;23.41;62.66;100336.75;5011992;28;20113;-87
2022/07/24 02:12:01;;;;;;;11.50;3.95;;;;;;;23.43;63.27;100358.66;5012222;28;20029;-86
2022/07/24 02:14:26;;;;;;;8.60;3.80;;;;;;;23.21;63.19;100296.72;5011460;28;20030;-83
2022/07/24 02:16:52;;;;;;;5.70;3.30;;;;;;;23.37;62.70;100302.59;5011908;28;20022;-87
2022/07/24 02:19:17;;;;;;;6.97;3.40;;;;;;;23.68;62.54;100338.91;5011990;28;20108;-86
2022/07/24 02:21:43;;;;;;;4.80;3.53;;;;;;;23.89;62.64;100362.19;5011639;28;20026;-83
2022/07/24 02:24:08;;;;;;;7.35;3.83;;;;;;;23.73;62.37;100340.53;4994160;28;20088;-85
2022/07/24 02:26:35;;;;;;;11.38;4.07;;;;;;;24.00;62.06;100369.94;5011551;28;20520;-84
2022/07/24 02:29:00;;;;;;;8.40;3.72;;;;;;;23.74;61.94;100317.69;5011221;28;20018;-83
2022/07/24 02:31:26;;;;;;;8.98;4.13;;;;;;;23.96;62.36;100370.88;5011323;28;20030;-84
2022/07/24 02:33:52;;;;;;;9.45;3.95;;;;;;;23.94;61.70;100337.53;5011507;28;20073;-83
2022/07/24 02:36:17;;;;;;;7.93;3.65;;;;;;;24.25;61.23;100364.16;5011670;28;20465;-84
2022/07/24 02:38:43;;;;;;;11.73;4.15;;;;;;;24.39;60.48;100355.91;5011355;28;20048;-84
2022/07/24 02:41:08;;;;;;;8.70;4.28;;;;;;;24.08;60.21;100300.34;4993784;28;20030;-85
2022/07/24 02:43:34;;;;;;;9.25;4.22;;;;;;;24.35;59.86;100352.47;4993590;28;20033;-86
2022/07/24 02:45:59;;;;;;;7.28;4.30;;;;;;;24.00;60.25;100306.63;4915395;29;20049;-81
2022/07/24 02:48:25;;;;;;;6.18;3.92;;;;;;;24.39;60.38;100383.16;4931089;29;20111;-83
2022/07/24 02:50:50;;;;;;;7.20;4.22;;;;;;;24.06;60.92;100356.63;4931636;29;20055;-84
2022/07/24 02:53:16;;;;;;;9.10;3.75;;;;;;;23.97;61.81;100372.59;4931227;29;20035;-84
2022/07/24 02:55:42;;;;;;;7.63;3.83;;;;;;;23.78;62.61;100351.00;4931614;29;20059;-85
2022/07/24 02:58:07;;;;;;;9.15;3.80;;;;;;;23.78;63.14;100366.81;4931469;29;20450;-85
2022/07/24 03:00:33;;;;;;;8.13;3.80;;;;;;;23.74;63.12;100349.31;4931614;29;20049;-86
2022/07/24 03:03:00;;;;;;;8.48;3.85;;;;;;;24.01;62.93;100369.03;4931550;29;20059;-85
2022/07/24 03:05:25;;;;;;;6.05;4.10;;;;;;;24.11;62.54;100372.31;4931380;29;20175;-86
2022/07/24 03:07:51;;;;;;;7.43;3.67;;;;;;;24.18;60.18;100365.16;4931297;29;20091;-83
2022/07/24 03:10:16;;;;;;;8.98;3.88;;;;;;;24.26;59.10;100373.78;4931405;29;20042;-83
2022/07/24 03:12:43;;;;;;;9.27;3.97;;;;;;;24.21;59.09;100368.63;4931150;29;20048;-83
2022/07/24 03:15:09;;;;;;;10.95;3.70;;;;;;;24.02;59.93;100348.78;4931603;29;20043;-86
2022/07/24 03:17:35;;;;;;;12.07;4.50;;;;;;;24.15;60.55;100365.22;4959471;28;20749;-84
2022/07/24 03:20:01;;;;;;;9.40;4.10;;;;;;;23.98;60.76;100333.94;4969583;28;20114;-85
2022/07/24 03:22:26;;;;;;;11.07;4.20;;;;;;;24.13;60.78;100351.22;4969558;28;20485;-86
2022/07/24 03:24:51;;;;;;;12.40;4.00;;;;;;;24.11;61.00;100338.03;4969732;28;20034;-85
2022/07/24 03:27:17;;;;;;;7.70;3.88;;;;;;;24.32;60.44;100363.09;4966307;28;20034;-85
2022/07/24 03:29:42;;;;;;;6.60;4.43;;;;;;;24.28;61.02;100355.28;4969440;28;20034;-85
2022/07/24 03:32:08;;;;;;;13.35;4.28;;;;;;;24.22;60.58;100361.56;4969523;28;20548;-84
2022/07/24 03:34:33;;;;;;;16.65;4.30;;;;;;;24.27;59.93;100377.28;4969388;28;20027;-84
2022/07/24 03:36:59;;;;;;;8.07;4.10;;;;;;;23.81;59.41;100306.09;4969289;28;20608;-84
2022/07/24 03:39:24;;;;;;;7.57;4.13;;;;;;;24.18;59.14;100359.88;4969372;28;20633;-84
2022/07/24 03:41:50;;;;;;;10.00;4.70;;;;;;;24.03;59.43;100318.88;4969141;28;20514;-85
2022/07/24 03:44:15;;;;;;;10.63;4.18;;;;;;;24.28;59.42;100356.16;4969359;28;20039;-85
2022/07/24 03:46:41;;;;;;;10.85;4.32;;;;;;;24.38;59.25;100376.16;4958694;28;20058;-83
2022/07/24 03:49:06;;;;;;;13.05;4.60;;;;;;;24.31;59.31;100369.28;4978998;28;20056;-84
2022/07/24 03:51:32;;;;;;;11.60;4.40;;;;;;;24.40;59.58;100378.78;4990684;28;20127;-86
2022/07/24 03:53:57;;;;;;;7.03;4.50;;;;;;;24.23;60.14;100345.69;4990910;28;20113;-82
2022/07/24 03:56:23;;;;;;;12.25;4.75;;;;;;;23.75;60.03;100278.13;4998624;28;20112;-84
2022/07/24 03:58:48;;;;;;;11.10;4.47;;;;;;;24.21;60.35;100370.38;5010978;28;20029;-85
2022/07/24 04:01:14;;;;;;;11.45;5.30;;;;;;;23.71;60.67;100294.03;5004274;28;20037;-86
2022/07/24 04:03:39;;;;;;;8.18;4.88;;;;;;;24.18;60.68;100383.63;4999367;28;20022;-84
2022/07/24 04:06:06;;;;;;;7.85;4.47;;;;;;;24.27;61.54;100382.56;4991184;28;20030;-84
2022/07/24 04:08:32;;;;;;;9.85;4.57;;;;;;;24.14;61.55;100363.47;4973544;28;20755;-84
2022/07/24 04:10:58;;;;;;;10.50;4.63;;;;;;;23.87;62.44;100365.75;4990765;28;20026;-84
2022/07/24 04:13:29;;;;;;;13.23;4.28;;;;;;;23.97;62.87;100377.88;4973301;28;20556;-84
2022/07/24 04:15:56;;;;;;;24.45;5.15;;;;;;;24.03;62.43;100377.75;4990880;28;20477;-84
2022/07/24 04:18:21;;;;;;;13.52;4.18;;;;;;;24.01;62.31;100362.88;4973364;28;20102;-84
2022/07/24 04:20:47;;;;;;;10.23;4.72;;;;;;;24.17;61.99;100390.66;4992719;28;20559;-83
2022/07/24 04:23:12;;;;;;;11.73;5.15;;;;;;;23.78;63.17;100336.97;4974526;28;20405;-80
2022/07/24 04:25:38;;;;;;;12.18;4.47;;;;;;;23.82;62.50;100363.19;4990829;28;20488;-81
2022/07/24 04:28:04;;;;;;;9.20;4.50;;;;;;;23.56;61.84;100309.25;4991956;28;20030;-81
2022/07/24 04:30:30;;;;;;;7.68;4.28;;;;;;;23.95;62.03;100365.63;4993535;28;20064;-81
2022/07/24 04:32:56;;;;;;;9.30;4.40;;;;;;;23.97;62.25;100367.34;4994613;28;20018;-81
2022/07/24 04:35:21;;;;;;;9.68;4.30;;;;;;;24.15;62.52;100389.84;4994688;28;20527;-80
2022/07/24 04:37:47;;;;;;;9.85;4.57;;;;;;;24.04;62.30;100384.78;4994880;28;20053;-80
2022/07/24 04:40:13;;;;;;;8.13;4.28;;;;;;;23.73;62.89;100337.03;4994638;28;20125;-81
2022/07/24 04:42:40;;;;;;;7.90;4.18;;;;;;;23.90;63.41;100377.13;4994712;28;20034;-81
2022/07/24 04:45:08;;;;;;;9.93;4.32;;;;;;;23.53;63.76;100321.63;4994741;28;20059;-82
2022/07/24 04:47:33;;;;;;;7.95;4.18;;;;;;;23.71;65.04;100375.72;4994309;28;20074;-81
2022/07/24 04:49:59;;;;;;;9.05;4.60;;;;;;;23.67;65.97;100384.59;4994275;28;20084;-82
2022/07/24 04:52:24;;;;;;;11.05;5.10;;;;;;;23.51;66.44;100387.50;4984700;28;20034;-81
2022/07/24 04:54:49;;;;;;;8.80;4.60;;;;;;;23.63;66.58;100391.69;5013991;28;20029;-83
2022/07/24 04:57:15;;;;;;;14.55;4.72;;;;;;;23.37;66.73;100334.19;5012724;28;20495;-82
2022/07/24 04:59:40;;;;;;;10.48;5.15;;;;;;;23.84;66.34;100389.53;5014073;28;20731;-80
2022/07/24 05:02:06;;;;;;;10.82;4.82;;;;;;;23.92;65.81;100381.53;5013804;28;20408;-81
2022/07/24 05:04:34;;;;;;;8.65;4.47;;;;;;;23.89;65.54;100369.25;5013572;28;20140;-81
2022/07/24 05:07:00;;;;;;;10.95;5.20;;;;;;;24.02;66.12;100396.25;5013549;28;20030;-81
2022/07/24 05:09:25;;;;;;;8.40;4.40;;;;;;;23.87;64.68;100371.03;5012361;28;20050;-81
2022/07/24 05:11:51;;;;;;;7.75;4.40;;;;;;;23.75;64.58;100356.31;5013511;28;20033;-81
2022/07/24 05:14:16;;;;;;;8.13;4.68;;;;;;;24.08;64.69;100387.38;4996076;28;20032;-81
2022/07/24 05:16:42;;;;;;;9.52;4.10;;;;;;;24.16;63.93;100388.06;5013000;28;20060;-87
2022/07/24 05:19:07;;;;;;;8.98;4.15;;;;;;;24.22;63.82;100386.19;5005738;28;20531;-81
2022/07/24 05:21:33;;;;;;;8.75;4.43;;;;;;;24.28;63.52;100387.81;5003413;28;20435;-81
2022/07/24 05:24:01;;;;;;;8.05;3.95;;;;;;;24.14;64.59;100379.31;4993489;28;20102;-80
2022/07/24 05:26:26;;;;;;;11.85;4.85;;;;;;;24.22;64.60;100377.38;4982596;28;20034;-82
2022/07/24 05:28:52;;;;;;;10.15;4.68;;;;;;;24.29;64.23;100362.28;5012882;28;20029;-87
2022/07/24 05:31:17;;;;;;;12.05;4.70;;;;;;;24.45;64.09;100365.44;4994969;28;20022;-82
2022/07/24 05:33:43;;;;;;;20.17;6.07;;;;;;;24.21;65.57;100360.69;5007304;28;20428;-82
2022/07/24 05:36:08;;;;;;;10.82;5.15;;;;;;;23.86;66.32;100332.38;5013087;28;20041;-82
2022/07/24 05:38:34;;;;;;;12.40;4.90;;;;;;;24.07;66.10;100354.84;5012320;28;20423;-77
2022/07/24 05:40:59;;;;;;;14.70;4.97;;;;;;;24.33;66.89;100369.25;5008846;28;20034;-80
2022/07/24 05:43:25;;;;;;;11.40;5.63;;;;;;;24.54;65.29;100384.59;5011940;28;20022;-79
2022/07/24 05:45:50;;;;;;;8.85;4.93;;;;;;;24.58;65.68;100385.41;5011697;28;20030;-80
2022/07/24 05:48:16;;;;;;;14.77;5.53;;;;;;;24.53;66.80;100364.38;4993291;28;20052;-81
2022/07/24 05:50:41;;;;;;;8.52;4.68;;;;;;;24.60;65.00;100385.34;5011508;28;20064;-83
2022/07/24 05:53:07;;;;;;;10.50;4.95;;;;;;;24.36;65.04;100332.22;5008138;28;20030;-81
2022/07/24 05:55:32;;;;;;;16.67;5.00;;;;;;;24.39;63.98;100342.72;5011765;28;20091;-84
2022/07/24 05:57:58;;;;;;;10.82;4.57;;;;;;;24.54;63.60;100346.78;5011001;28;20100;-85
2022/07/24 06:00:23;;;;;;;8.40;4.90;;;;;;;24.86;64.18;100371.56;5010397;28;20026;-83
2022/07/24 06:02:48;;;;;;;11.43;4.55;;;;;;;25.07;62.59;100377.25;5011327;28;20117;-84
2022/07/24 06:05:15;;;;;;;14.40;5.32;;;;;;;24.95;61.01;100312.38;4994433;28;20029;-85
2022/07/24 06:07:41;;;;;;;8.90;4.68;;;;;;;25.02;61.18;100301.66;5010921;28;20030;-83
2022/07/24 06:10:07;;;;;;;10.85;5.22;;;;;;;25.24;59.73;100353.06;5012274;28;20033;-83
2022/07/24 06:12:33;;;;;;;9.82;4.38;;;;;;;25.37;56.27;100338.63;5012977;28;20105;-86
2022/07/24 06:14:58;;;;;;;12.35;4.68;;;;;;;25.58;57.46;100358.34;5012926;28;20139;-85
2022/07/24 06:17:24;;;;;;;10.40;4.80;;;;;;;25.43;56.56;100343.75;5012163;28;20415;-83
2022/07/24 06:19:49;;;;;;;9.32;4.70;;;;;;;25.62;57.32;100356.47;4994824;28;20550;-83
2022/07/24 06:22:15;;;;;;;9.50;4.72;;;;;;;25.65;56.95;100332.63;5011559;28;20076;-83
2022/07/24 06:24:40;;;;;;;8.15;4.85;;;;;;;25.92;56.53;100357.41;5012065;28;20029;-85
2022/07/24 06:27:06;;;;;;;10.93;5.45;;;;;;;25.97;56.12;100339.63;5012370;28;20068;-85
2022/07/24 06:29:32;;;;;;;9.70;7.38;;;;;;;26.12;53.10;100348.03;5011836;28;20018;-83
2022/07/24 06:31:57;;;;;;;11.30;7.07;;;;;;;25.86;52.93;100280.00;4994591;28;20109;-86
2022/07/24 06:34:24;;;;;;;11.45;6.50;;;;;;;25.96;53.58;100284.13;5011971;28;20033;-83
2022/07/24 06:36:51;;;;;;;16.38;12.00;;;;;;;26.38;50.85;100330.50;5011861;28;20103;-83
2022/07/24 06:39:17;;;;;;;20.80;11.05;;;;;;;26.35;50.32;100323.53;5012455;28;20022;-84
2022/07/24 06:41:43;;;;;;;17.20;10.88;;;;;;;26.52;50.85;100338.00;5011785;28;20484;-84
2022/07/24 06:44:09;;;;;;;16.52;9.20;;;;;;;26.45;51.26;100324.97;4994019;28;20124;-85
2022/07/24 06:46:34;;;;;;;15.52;10.23;;;;;;;26.55;51.33;100330.00;5011706;28;20488;-83
2022/07/24 06:49:01;;;;;;;15.77;12.70;;;;;;;26.59;52.15;100327.22;4994543;28;20536;-84
2022/07/24 06:51:47;;;;;;;17.00;12.35;;;;;;;26.56;52.41;100307.91;4911892;29;20036;-85
2022/07/24 06:54:13;;;;;;;18.17;15.93;;;;;;;26.76;51.67;100321.38;4912845;29;20040;-83
2022/07/24 06:56:39;;;;;;;22.45;15.02;;;;;;;26.83;51.36;100324.72;4913100;29;20048;-85
2022/07/24 06:59:04;;;;;;;23.58;18.98;;;;;;;26.76;51.07;100302.00;4912813;29;20036;-89
2022/07/24 07:01:30;;;;;;;26.13;16.75;;;;;;;26.83;51.37;100313.22;4912584;29;20601;-85
2022/07/24 07:03:56;;;;;;;22.85;15.38;;;;;;;27.00;51.10;100315.31;4911801;29;20063;-85
2022/07/24 07:06:22;;;;;;;23.02;16.73;;;;;;;27.05;50.90;100311.59;4912631;29;20036;-84
2022/07/24 07:08:48;;;;;;;25.95;16.95;;;;;;;27.02;50.88;100289.66;4912392;29;20050;-85
2022/07/24 07:11:14;;;;;;;19.20;16.25;;;;;;;27.20;50.68;100315.50;4912259;29;20092;-85
2022/07/24 07:13:39;;;;;;;22.90;16.30;;;;;;;27.37;50.72;100319.34;4912234;29;20542;-84
2022/07/24 07:16:05;;;;;;;20.40;15.88;;;;;;;27.46;50.05;100326.16;4912116;29;20566;-82
2022/07/24 07:18:30;;;;;;;22.58;17.17;;;;;;;27.51;49.39;100333.00;4911457;29;20579;-83
2022/07/24 07:23:54;;;;;;;27.77;21.48;;;;;;;27.41;49.02;100286.53;5134969;23;20084;-83
2022/07/24 07:26:20;;;;;;;28.92;25.75;;;;;;;27.65;48.72;100313.09;5030974;28;20488;-82
2022/07/24 07:28:46;;;;;;;32.97;28.13;;;;;;;27.72;48.64;100315.44;5029053;28;20555;-84
2022/07/24 07:31:11;;;;;;;27.45;24.45;;;;;;;27.92;48.63;100304.06;5030690;28;20033;-82
2022/07/24 07:33:37;;;;;;;29.50;25.48;;;;;;;28.11;47.82;100314.03;5030643;28;20105;-85
2022/07/24 07:36:03;;;;;;;29.05;24.33;;;;;;;27.89;47.82;100275.03;5030973;28;20023;-85
2022/07/24 07:38:28;;;;;;;26.30;23.08;;;;;;;28.19;47.68;100316.41;5029731;28;20476;-79
2022/07/24 07:40:54;;;;;;;25.25;22.60;;;;;;;28.30;47.65;100308.00;5029514;28;20491;-82
2022/07/24 07:43:19;;;;;;;29.90;25.17;;;;;;;28.30;48.45;100300.03;5029823;28;20036;-80
2022/07/24 07:45:44;;;;;;;31.27;25.13;;;;;;;28.47;47.64;100300.22;5029847;28;20155;-80
2022/07/24 07:48:10;;;;;;;28.38;25.35;;;;;;;28.37;47.51;100277.63;5030117;28;20070;-81
2022/07/24 07:50:36;;;;;;;30.70;24.30;;;;;;;28.45;47.44;100253.41;5029806;28;20152;-80
2022/07/24 07:53:01;;;;;;;27.77;23.27;;;;;;;28.39;47.51;100255.41;5029959;28;20108;-81
2022/07/24 07:55:27;;;;;;;35.08;30.45;;;;;;;28.77;45.47;100270.69;5029730;28;20064;-81
2022/07/24 07:57:52;;;;;;;35.55;31.80;;;;;;;28.93;47.18;100288.66;5030039;28;20484;-82
2022/07/24 08:00:19;;;;;;;32.15;28.58;;;;;;;28.70;46.35;100263.94;5026948;28;20504;-82
2022/07/24 08:02:45;;;;;;;41.10;36.75;;;;;;;28.96;46.32;100283.19;5029673;28;20048;-82
2022/07/24 08:05:10;;;;;;;44.38;40.00;;;;;;;28.92;47.29;100263.88;5029602;28;20037;-83
2022/07/24 08:07:36;;;;;;;42.22;35.88;;;;;;;29.01;45.77;100281.22;5030205;28;20026;-81
2022/07/24 08:10:03;;;;;;;41.15;34.55;;;;;;;29.20;44.58;100283.94;5030041;28;20152;-82
2022/07/24 08:12:28;;;;;;;33.13;29.70;;;;;;;29.12;44.43;100252.38;5030091;28;20025;-80
2022/07/24 08:14:54;;;;;;;34.88;28.27;;;;;;;29.35;44.05;100277.13;5029648;28;20472;-83
2022/07/24 08:17:19;;;;;;;32.88;29.35;;;;;;;29.54;43.88;100279.81;5030208;28;20392;-81
2022/07/24 08:19:45;;;;;;;31.63;28.23;;;;;;;29.50;43.87;100262.28;5029109;28;20110;-79
2022/07/24 08:22:11;;;;;;;34.25;30.85;;;;;;;29.73;43.50;100276.31;5029300;28;20200;-82
2022/07/24 08:24:37;;;;;;;35.60;31.83;;;;;;;29.43;43.76;100236.88;5029470;28;20503;-82
2022/07/24 08:27:02;;;;;;;39.00;35.15;;;;;;;29.44;43.47;100210.22;5029158;28;20025;-81
2022/07/24 08:29:28;;;;;;;43.63;38.75;;;;;;;29.73;42.99;100253.22;5029363;28;20132;-83
2022/07/24 08:31:53;;;;;;;44.72;39.65;;;;;;;29.96;42.61;100264.63;5029826;28;20476;-80
2022/07/24 08:34:19;;;;;;;44.78;40.38;;;;;;;30.00;42.16;100247.56;5030361;28;20028;-83
2022/07/24 08:36:45;;;;;;;44.53;39.97;;;;;;;29.69;42.78;100225.03;5029986;28;20030;-83
2022/07/24 08:39:15;;;;;;;41.47;36.88;;;;;;;29.96;43.33;100254.84;5030272;28;20034;-83
2022/07/24 08:41:41;;;;;;;39.58;35.53;;;;;;;30.11;42.06;100242.59;5012313;28;20029;-80
2022/07/24 08:44:07;;;;;;;40.90;36.72;;;;;;;30.00;42.77;100234.25;5029299;28;20034;-81
2022/07/24 08:46:36;;;;;;;43.40;35.75;;;;;;;30.19;41.91;100242.22;5029833;28;20515;-82
2022/07/24 08:49:03;;;;;;;40.83;36.92;;;;;;;30.18;41.71;100220.06;5029876;28;20028;-82
2022/07/24 08:51:33;;;;;;;39.45;35.45;;;;;;;30.31;41.10;100224.78;5029970;28;20068;-80
2022/07/24 08:53:59;;;;;;;38.72;34.83;;;;;;;30.46;40.89;100236.47;5029748;28;20036;-81
2022/07/24 08:56:26;;;;;;;38.45;34.60;;;;;;;30.64;40.99;100248.03;5029894;28;20399;-82
2022/07/24 08:58:52;;;;;;;38.03;34.22;;;;;;;30.72;41.08;100237.84;5028831;28;20025;-81
2022/07/24 09:01:17;;;;;;;36.33;32.13;;;;;;;31.01;40.52;100248.81;5012303;28;20032;-81
2022/07/24 09:03:45;;;;;;;34.75;31.02;;;;;;;31.09;40.21;100235.09;5029720;28;20025;-82
2022/07/24 09:06:12;;;;;;;35.95;32.28;;;;;;;31.10;40.39;100221.69;5029585;28;20101;-81
2022/07/24 09:09:03;;;;;;;35.05;31.27;;;;;;;31.36;40.06;100242.59;5029592;28;20026;-86
2022/07/24 09:11:29;;;;;;;33.17;29.80;;;;;;;31.31;40.12;100240.16;4949316;28;20828;-83
2022/07/24 09:16:46;;;;;;;31.38;28.02;;;;;;;31.36;40.84;100222.09;4952121;28;20050;-82
2022/07/24 09:19:13;;;;;;;31.42;28.40;;;;;;;31.47;40.40;100218.84;4951270;28;20038;-80
2022/07/24 09:21:40;;;;;;;30.70;27.30;;;;;;;31.68;40.04;100226.63;4942239;29;20048;-80
2022/07/24 09:24:22;;;;;;;31.17;27.95;;;;;;;31.71;39.19;100227.34;4951918;28;20074;-80
2022/07/24 09:26:53;;;;;;;28.65;25.67;;;;;;;31.81;39.18;100210.81;4952243;29;20031;-80
2022/07/24 09:29:20;;;;;;;28.23;24.55;;;;;;;31.98;38.51;100231.22;4952061;29;20043;-81
2022/07/24 09:32:04;;;;;;;28.65;23.35;;;;;;;31.83;38.62;100161.75;4951348;28;20065;-82
2022/07/24 09:34:38;;;;;;;28.70;22.33;;;;;;;32.29;38.44;100218.81;4950711;29;20074;-84
2022/07/24 09:37:07;;;;;;;24.00;21.40;;;;;;;32.33;38.21;100207.84;4951663;29;20035;-79
2022/07/24 09:39:35;;;;;;;29.67;21.88;;;;;;;32.10;38.36;100161.09;4935821;29;20513;-80
2022/07/24 09:42:06;;;;;;;22.52;18.90;;;;;;;32.42;37.60;100175.25;4952066;28;20062;-81
2022/07/24 09:44:32;;;;;;;22.10;19.77;;;;;;;32.79;37.34;100198.06;4951609;28;20066;-82
2022/07/24 09:46:59;;;;;;;24.67;18.67;;;;;;;32.59;36.79;100152.88;4952040;28;20078;-81
2022/07/24 09:49:27;;;;;;;27.25;17.70;;;;;;;32.97;37.28;100201.44;5029489;28;20096;-81
2022/07/24 09:52:05;;;;;;;19.23;16.30;;;;;;;33.12;36.48;100194.28;5031990;28;20037;-80
2022/07/24 09:54:32;;;;;;;19.25;16.67;;;;;;;33.30;36.46;100193.19;5031900;28;20083;-80
2022/07/24 09:57:17;;;;;;;25.17;15.38;;;;;;;33.36;36.14;100178.53;5031598;28;20424;-81
2022/07/24 09:59:49;;;;;;;21.50;15.15;;;;;;;33.53;37.40;100188.19;5032323;28;20156;-81
2022/07/24 10:02:16;;;;;;;23.13;15.00;;;;;;;33.43;36.29;100162.97;5031814;28;20018;-81
2022/07/24 10:04:43;;;;;;;17.48;14.77;;;;;;;33.48;36.88;100158.19;5032374;28;20029;-81
2022/07/24 10:07:10;;;;;;;16.52;13.27;;;;;;;33.71;36.13;100170.94;5031674;28;20028;-80
2022/07/24 10:09:41;;;;;;;16.65;12.93;;;;;;;33.61;38.93;100127.00;5031858;28;20103;-81
2022/07/24 10:12:15;;;;;;;15.30;12.10;;;;;;;34.03;35.12;100162.63;5032066;28;20025;-80
2022/07/24 10:14:41;;;;;;;18.02;11.25;;;;;;;34.06;34.45;100161.56;5031877;28;20029;-80
2022/07/24 10:17:09;;;;;;;16.67;11.20;;;;;;;34.15;34.86;100152.91;5031631;28;20028;-81
2022/07/24 10:19:47;;;;;;;16.52;12.20;;;;;;;34.46;34.85;100158.91;5031263;28;20415;-80
2022/07/24 10:22:18;;;;;;;13.88;11.40;;;;;;;34.72;33.98;100160.72;5031529;28;20058;-80
2022/07/24 10:24:56;;;;;;;15.50;9.98;;;;;;;34.79;32.97;100151.31;5031683;28;20037;-80
2022/07/24 10:27:29;;;;;;;14.43;10.90;;;;;;;34.82;32.77;100151.09;5031112;28;20033;-80
2022/07/24 10:30:10;;;;;;;16.33;10.07;;;;;;;34.92;33.09;100152.19;5030999;28;20037;-81
2022/07/24 10:32:37;;;;;;;14.32;10.23;;;;;;;34.98;33.26;100148.19;5031505;28;20199;-80
2022/07/24 10:35:22;;;;;;;18.65;11.02;;;;;;;35.15;33.01;100137.16;5031021;28;20029;-78
2022/07/24 10:38:21;;;;;;;13.65;10.02;;;;;;;35.38;30.93;100141.84;5031210;28;20492;-80
2022/07/24 10:40:51;;;;;;;;;;;;;;;35.38;32.07;100142.72;5031654;28;20026;-80
2022/07/24 10:43:19;;;;;;;13.13;9.07;;;;;;;35.54;31.60;100134.41;5031116;28;19920;-80
2022/07/24 10:45:53;;;;;;;10.90;9.73;;;;;;;35.65;31.61;100127.38;4994393;28;20064;-80
2022/07/24 10:48:28;;;;;;;15.48;11.05;;;;;;;35.86;30.98;100131.13;5030984;28;20099;-80
2022/07/24 10:50:59;;;;;;;15.70;12.15;;;;;;;35.65;31.05;100127.38;5030816;28;20113;-80
2022/07/24 10:53:27;;;;;;;15.55;11.50;;;;;;;35.68;31.68;100121.75;5031160;28;20029;-82
2022/07/24 10:55:54;;;;;;;14.35;10.82;;;;;;;35.80;30.88;100120.84;5030976;28;20032;-80
2022/07/24 10:58:21;;;;;;;14.45;9.20;;;;;;;35.88;30.71;100129.22;5031141;28;20040;-82
2022/07/24 11:00:49;;;;;;;15.80;10.45;;;;;;;35.93;30.29;100121.66;5030664;28;20029;-80
2022/07/24 11:03:24;;;;;;;12.20;9.88;;;;;;;35.98;29.71;100094.47;5012920;28;20028;-84
2022/07/24 11:06:05;;;;;;;14.27;10.27;;;;;;;36.05;32.18;100065.28;5030817;28;20026;-84
2022/07/24 11:08:32;;;;;;;13.88;10.50;;;;;;;36.28;29.07;100112.72;5017585;28;20022;-84
2022/07/24 11:11:21;;;;;;;20.38;17.70;;;;;;;36.38;29.52;100095.94;5012503;28;20029;-82
2022/07/24 11:13:56;;;;;;;18.42;16.63;;;;;;;36.56;29.20;100096.31;4969171;28;20047;-81
2022/07/24 11:16:25;;;;;;;20.75;17.85;;;;;;;36.53;28.42;100100.09;4969384;28;20043;-79
2022/07/24 11:18:53;;;;;;;19.40;17.60;;;;;;;36.78;28.25;100094.63;4969375;28;20047;-80
2022/07/24 11:21:42;;;;;;;21.50;19.30;;;;;;;36.91;29.36;100093.56;4969410;28;20089;-81